createdAt,value
2023-05-10T00:00:35.889Z,12.16
2023-05-10T00:05:37.791Z,12.15
2023-05-10T00:10:39.657Z,12.15
2023-05-10T00:15:41.496Z,12.11
2023-05-10T00:20:43.413Z,12.05
2023-05-10T00:25:45.416Z,12.02
2023-05-10T00:30:47.231Z,11.98
2023-05-10T00:35:49.176Z,11.95
2023-05-10T00:40:51.122Z,11.91
2023-05-10T00:46:00.914Z,11.89
2023-05-10T00:51:03.375Z,11.87
2023-05-10T00:56:05.277Z,11.85
2023-05-10T01:01:07.260Z,11.85
2023-05-10T01:06:09.173Z,11.84
2023-05-10T01:11:11.144Z,11.80
2023-05-10T01:16:13.183Z,11.78
2023-05-10T01:21:21.017Z,11.76
2023-05-10T01:26:49.100Z,11.74
2023-05-10T01:32:09.586Z,11.72
2023-05-10T01:37:16.879Z,11.72
2023-05-10T01:42:21.131Z,11.71
2023-05-10T01:47:29.985Z,11.72
2023-05-10T01:52:34.023Z,11.68
2023-05-10T01:57:40.728Z,11.66
2023-05-10T02:02:45.690Z,11.62
2023-05-10T02:07:48.433Z,11.62
2023-05-10T02:12:51.174Z,11.59
2023-05-10T02:17:55.348Z,11.58
2023-05-10T02:22:58.054Z,11.57
2023-05-10T02:28:00.992Z,11.59
2023-05-10T02:33:05.495Z,11.65
2023-05-10T02:38:08.417Z,11.70
2023-05-10T02:43:14.432Z,11.77
2023-05-10T02:48:17.302Z,11.83
2023-05-10T02:53:32.566Z,11.91
2023-05-10T02:58:34.423Z,11.97
2023-05-10T03:03:36.245Z,12.01
2023-05-10T03:08:38.571Z,12.10
2023-05-10T03:13:50.045Z,12.19
2023-05-10T03:18:54.784Z,12.31
2023-05-10T03:24:04.234Z,12.41
2023-05-10T03:29:07.552Z,12.51
2023-05-10T03:34:09.929Z,12.62
2023-05-10T03:39:11.834Z,12.75
2023-05-10T03:44:13.829Z,12.86
2023-05-10T03:49:15.928Z,13.00
2023-05-10T03:54:18.227Z,13.16
2023-05-10T03:59:20.374Z,13.29
2023-05-10T04:04:22.971Z,13.48
2023-05-10T04:09:26.387Z,13.66
2023-05-10T04:14:28.190Z,13.83
2023-05-10T04:19:30.602Z,14.04
2023-05-10T04:24:32.502Z,14.20
2023-05-10T04:29:34.445Z,14.35
2023-05-10T04:34:36.390Z,14.67
2023-05-10T04:39:40.224Z,15.06
2023-05-10T04:44:43.658Z,15.36
2023-05-10T04:49:45.603Z,15.67
2023-05-10T04:54:47.442Z,15.95
2023-05-10T04:59:50.493Z,16.26
2023-05-10T05:04:52.585Z,16.50
2023-05-10T05:09:54.554Z,16.73
2023-05-10T05:14:56.413Z,16.95
2023-05-10T05:19:58.407Z,17.27
2023-05-10T05:25:00.437Z,17.70
2023-05-10T05:30:02.233Z,17.87
2023-05-10T05:35:04.374Z,18.04
2023-05-10T05:40:06.883Z,18.44
2023-05-10T05:45:09.910Z,18.84
2023-05-10T05:50:11.808Z,19.20
2023-05-10T05:55:13.921Z,19.42
2023-05-10T06:00:16.443Z,19.50
2023-05-10T06:05:21.295Z,19.56
2023-05-10T06:10:23.873Z,19.59
2023-05-10T06:15:25.794Z,19.72
2023-05-10T06:20:27.805Z,19.71
2023-05-10T06:25:29.716Z,19.76
2023-05-10T06:30:31.767Z,19.63
2023-05-10T06:35:34.594Z,19.66
2023-05-10T06:40:37.112Z,19.89
2023-05-10T06:45:39.105Z,20.32
2023-05-10T06:50:40.952Z,20.70
2023-05-10T06:55:42.819Z,21.03
2023-05-10T07:00:46.561Z,21.34
2023-05-10T07:05:48.489Z,21.43
2023-05-10T07:10:50.601Z,21.52
2023-05-10T07:15:52.518Z,21.80
2023-05-10T07:20:54.432Z,22.23
2023-05-10T07:25:58.381Z,22.96
2023-05-10T07:31:00.383Z,23.84
2023-05-10T07:36:02.292Z,25.20
2023-05-10T07:41:04.150Z,27.03
2023-05-10T07:46:06.430Z,28.77
2023-05-10T07:51:10.432Z,30.19
2023-05-10T07:56:23.525Z,31.14
2023-05-10T08:01:25.714Z,31.32
2023-05-10T08:06:29.219Z,32.39
2023-05-10T08:11:31.637Z,35.03
2023-05-10T08:16:34.236Z,37.85
2023-05-10T08:21:36.932Z,39.72
2023-05-10T08:26:38.900Z,40.98
2023-05-10T08:31:40.830Z,41.36
2023-05-10T08:36:42.762Z,41.13
2023-05-10T08:41:45.416Z,40.00
2023-05-10T08:46:47.566Z,38.49
2023-05-10T08:51:52.192Z,37.88
2023-05-10T08:56:54.373Z,38.43
2023-05-10T09:01:58.661Z,39.42
2023-05-10T09:07:00.702Z,40.70
2023-05-10T09:12:02.699Z,41.04
2023-05-10T09:17:05.471Z,38.95
2023-05-10T09:22:07.537Z,36.55
2023-05-10T09:27:09.437Z,34.59
2023-05-10T09:32:11.393Z,35.39
2023-05-10T09:37:13.605Z,37.69
2023-05-10T09:42:19.366Z,38.21
2023-05-10T09:47:21.220Z,38.94
2023-05-10T09:52:23.059Z,36.70
2023-05-10T09:57:26.040Z,33.61
2023-05-10T10:02:31.118Z,31.89
2023-05-10T10:07:33.216Z,31.18
2023-05-10T10:12:35.135Z,30.32
2023-05-10T10:17:38.331Z,29.42
2023-05-10T10:22:40.162Z,28.87
2023-05-10T10:27:42.501Z,28.52
2023-05-10T10:33:07.938Z,28.17
2023-05-10T10:38:18.685Z,28.12
2023-05-10T10:43:29.975Z,28.20
2023-05-10T10:48:31.813Z,28.53
2023-05-10T10:53:33.658Z,29.14
2023-05-10T10:58:35.570Z,29.81
2023-05-10T11:03:37.567Z,30.09
2023-05-10T11:08:45.057Z,29.56
2023-05-10T11:13:50.880Z,28.85
2023-05-10T11:18:53.639Z,28.22
2023-05-10T11:23:57.724Z,27.65
2023-05-10T11:29:01.895Z,27.02
2023-05-10T11:34:03.862Z,26.72
2023-05-10T11:39:06.120Z,26.57
2023-05-10T11:44:10.200Z,26.37
2023-05-10T11:49:12.769Z,26.51
2023-05-10T11:54:14.796Z,26.17
2023-05-10T11:59:16.693Z,25.93
2023-05-10T12:04:18.810Z,25.89
2023-05-10T12:09:31.381Z,25.93
2023-05-10T12:14:41.798Z,25.99
2023-05-10T12:19:44.929Z,25.90
2023-05-10T12:24:46.771Z,25.25
2023-05-10T12:29:49.229Z,24.74
2023-05-10T12:34:54.448Z,24.54
2023-05-10T12:39:56.271Z,24.45
2023-05-10T12:44:58.670Z,24.34
2023-05-10T12:50:01.367Z,24.23
2023-05-10T12:55:04.262Z,24.11
2023-05-10T13:00:06.736Z,24.07
2023-05-10T13:05:08.888Z,23.91
2023-05-10T13:10:11.317Z,23.77
2023-05-10T13:15:13.225Z,23.76
2023-05-10T13:20:15.946Z,23.86
2023-05-10T13:25:18.376Z,23.96
2023-05-10T13:30:21.659Z,24.00
2023-05-10T13:35:23.572Z,23.92
2023-05-10T13:40:25.382Z,23.72
2023-05-10T13:45:27.285Z,23.56
2023-05-10T13:50:29.275Z,23.44
2023-05-10T13:55:31.759Z,23.18
2023-05-10T14:00:33.637Z,23.08
2023-05-10T14:05:35.534Z,22.94
2023-05-10T14:10:38.034Z,22.86
2023-05-10T14:15:39.969Z,22.70
2023-05-10T14:20:41.922Z,22.54
2023-05-10T14:25:44.612Z,22.39
2023-05-10T14:30:46.503Z,22.23
2023-05-10T14:35:48.576Z,22.08
2023-05-10T14:40:50.768Z,21.94
2023-05-10T14:45:52.766Z,21.75
2023-05-10T14:50:54.765Z,21.60
2023-05-10T14:55:56.632Z,21.43
2023-05-10T15:00:58.505Z,21.18
2023-05-10T15:06:00.817Z,20.93
2023-05-10T15:11:02.700Z,20.83
2023-05-10T15:16:04.771Z,20.72
2023-05-10T15:21:06.836Z,20.63
2023-05-10T15:26:08.888Z,20.59
2023-05-10T15:31:11.655Z,20.54
2023-05-10T15:36:13.564Z,20.50
2023-05-10T15:41:15.534Z,20.28
2023-05-10T15:46:17.402Z,20.20
2023-05-10T15:51:19.837Z,20.02
2023-05-10T15:56:22.545Z,19.85
2023-05-10T16:01:24.701Z,19.69
2023-05-10T16:06:26.695Z,19.63
2023-05-10T16:11:28.578Z,19.57
2023-05-10T16:16:30.854Z,19.50
2023-05-10T16:21:32.900Z,19.43
2023-05-10T16:26:40.821Z,19.35
2023-05-10T16:31:42.832Z,19.20
2023-05-10T16:36:44.864Z,19.05
2023-05-10T16:41:46.912Z,18.92
2023-05-10T16:46:49.109Z,18.80
2023-05-10T16:51:51.030Z,18.68
2023-05-10T16:56:52.967Z,18.54
2023-05-10T17:01:55.132Z,18.40
2023-05-10T17:06:57.765Z,18.29
2023-05-10T17:11:59.738Z,18.19
2023-05-10T17:17:01.785Z,18.11
2023-05-10T17:22:04.038Z,18.05
2023-05-10T17:27:06.079Z,18.00
2023-05-10T17:32:09.429Z,17.94
2023-05-10T17:37:11.346Z,17.89
2023-05-10T17:42:13.858Z,17.85
2023-05-10T17:47:15.754Z,17.83
2023-05-10T17:52:17.650Z,17.79
2023-05-10T17:57:20.902Z,17.75
2023-05-10T18:02:22.887Z,17.71
2023-05-10T18:07:26.145Z,17.66
2023-05-10T18:12:28.150Z,17.61
2023-05-10T18:17:30.179Z,17.58
2023-05-10T18:22:32.184Z,17.52
2023-05-10T18:27:34.514Z,17.46
2023-05-10T18:32:38.498Z,17.42
2023-05-10T18:37:40.577Z,17.31
2023-05-10T18:42:42.366Z,17.34
2023-05-10T18:47:44.340Z,17.32
2023-05-10T18:52:46.897Z,17.29
2023-05-10T18:57:48.728Z,17.26
2023-05-10T19:02:50.760Z,17.23
2023-05-10T19:07:52.630Z,17.20
2023-05-10T19:12:55.552Z,17.14
2023-05-10T19:17:58.857Z,17.04
2023-05-10T19:23:09.838Z,16.90
2023-05-10T19:28:12.567Z,16.80
2023-05-10T19:33:14.579Z,16.72
2023-05-10T19:38:16.676Z,16.65
2023-05-10T19:43:18.675Z,16.65
2023-05-10T19:48:20.634Z,16.65
2023-05-10T19:53:22.555Z,16.67
2023-05-10T19:58:25.242Z,16.67
2023-05-10T20:03:28.722Z,16.67
2023-05-10T20:08:31.122Z,16.67
2023-05-10T20:13:33.529Z,16.61
2023-05-10T20:18:35.474Z,16.57
2023-05-10T20:23:37.498Z,16.52
2023-05-10T20:28:39.400Z,16.49
2023-05-10T20:33:41.313Z,16.48
2023-05-10T20:38:43.193Z,16.46
2023-05-10T20:43:45.131Z,16.44
2023-05-10T20:48:47.115Z,16.41
2023-05-10T20:53:49.080Z,16.38
2023-05-10T20:58:51.038Z,16.33
2023-05-10T21:03:52.982Z,16.24
2023-05-10T21:08:54.857Z,16.13
2023-05-10T21:13:57.216Z,16.07
2023-05-10T21:18:59.580Z,16.02
2023-05-10T21:24:01.610Z,15.97
2023-05-10T21:29:04.982Z,15.92
2023-05-10T21:34:07.040Z,15.85
2023-05-10T21:39:08.895Z,15.74
2023-05-10T21:44:11.502Z,15.62
2023-05-10T21:49:13.354Z,15.51
2023-05-10T21:54:15.182Z,15.46
2023-05-10T21:59:18.177Z,15.43
2023-05-10T22:04:20.193Z,15.42
2023-05-10T22:09:24.398Z,15.41
2023-05-10T22:14:26.559Z,15.41
2023-05-10T22:19:28.490Z,15.40
2023-05-10T22:24:30.663Z,15.40
2023-05-10T22:29:32.773Z,15.40
2023-05-10T22:34:35.843Z,15.37
2023-05-10T22:39:37.759Z,15.34
2023-05-10T22:44:39.537Z,15.31
2023-05-10T22:49:42.602Z,15.27
2023-05-10T22:54:44.466Z,15.23
2023-05-10T22:59:46.358Z,15.19
2023-05-10T23:04:48.397Z,15.14
2023-05-10T23:09:50.325Z,15.11
2023-05-10T23:14:52.286Z,15.07
2023-05-10T23:19:54.281Z,15.03
2023-05-10T23:24:57.524Z,15.00
2023-05-10T23:29:59.617Z,14.96
2023-05-10T23:35:01.545Z,14.95
2023-05-10T23:40:03.519Z,14.93
2023-05-10T23:45:05.997Z,14.90
2023-05-10T23:50:08.115Z,14.91
2023-05-10T23:55:10.319Z,14.90
